THY34 LTFM-HAAB
Flight info
| Callsign | THY34 |
|---|---|
| Flight time | 4h 50m |
| Altitude | 31000 |
| Route | RATVU1E/36 RATVU UT35 AYT UA16 TOMBI DCT DASNI M855 RASDA A16 CVO A727 LXR P751 TOMRU DCT KSL/N0463F320 DCT ALRAP/N0465F330 UT124 AMUDO AMUDO1A |
| Aircraft | B739/M-SDE2E3FGHIRWXY/LB1 |
Departure
| Time | 2026-05-03 21:17 |
|---|---|
| Airport | İstanbul Airport (LTFM) |
Arrival
| Time | 2026-05-04 02:07 |
|---|---|
| Airport | Addis Ababa Bole International Airport (HAAB) |
| Time | Latitude | Longitude | Altitude | Speed | Heading |
|---|---|---|---|---|---|
| 2026-05-03 21:03 | 41.26096 | 28.74916 | 333 ft | 0 kts | 251° |
| 2026-05-03 21:09 | 41.26098 | 28.74921 | 333 ft | 2 kts | 250° |
| 2026-05-03 21:09 | 41.26104 | 28.74946 | 333 ft | 2 kts | 251° |
| 2026-05-03 21:09 | 41.26109 | 28.74965 | 333 ft | 2 kts | 251° |
| 2026-05-03 21:10 | 41.26114 | 28.74984 | 333 ft | 2 kts | 251° |
| 2026-05-03 21:10 | 41.26117 | 28.75003 | 333 ft | 2 kts | 289° |
| 2026-05-03 21:10 | 41.26108 | 28.75017 | 333 ft | 1 kts | 336° |
| 2026-05-03 21:10 | 41.26102 | 28.75019 | 333 ft | 1 kts | 343° |
| 2026-05-03 21:11 | 41.26100 | 28.75020 | 333 ft | 0 kts | 343° |
| 2026-05-03 21:12 | 41.26101 | 28.75019 | 333 ft | 0 kts | 342° |
| 2026-05-03 21:12 | 41.26105 | 28.75017 | 333 ft | 1 kts | 341° |
| 2026-05-03 21:12 | 41.26115 | 28.75012 | 333 ft | 1 kts | 340° |
| 2026-05-03 21:12 | 41.26132 | 28.75004 | 333 ft | 3 kts | 341° |
| 2026-05-03 21:13 | 41.26158 | 28.74993 | 333 ft | 5 kts | 342° |
| 2026-05-03 21:13 | 41.26202 | 28.74990 | 333 ft | 7 kts | 24° |
| 2026-05-03 21:13 | 41.26223 | 28.75052 | 333 ft | 8 kts | 84° |
| 2026-05-03 21:13 | 41.26230 | 28.75138 | 333 ft | 10 kts | 88° |
| 2026-05-03 21:14 | 41.26231 | 28.75237 | 333 ft | 11 kts | 89° |
| 2026-05-03 21:14 | 41.26232 | 28.75350 | 333 ft | 13 kts | 89° |
| 2026-05-03 21:14 | 41.26233 | 28.75462 | 333 ft | 10 kts | 89° |
| 2026-05-03 21:14 | 41.26235 | 28.75548 | 333 ft | 7 kts | 86° |
| 2026-05-03 21:15 | 41.26238 | 28.75611 | 333 ft | 7 kts | 86° |
| 2026-05-03 21:15 | 41.26261 | 28.75659 | 333 ft | 5 kts | 27° |
| 2026-05-03 21:15 | 41.26279 | 28.75665 | 333 ft | 0 kts | 4° |
| 2026-05-03 21:16 | 41.26423 | 28.75669 | 334 ft | 49 kts | 360° |
| 2026-05-03 21:16 | 41.26741 | 28.75659 | 334 ft | 86 kts | 0° |
| 2026-05-03 21:16 | 41.27843 | 28.75631 | 334 ft | 149 kts | 359° |
| 2026-05-03 21:16 | 41.28927 | 28.75556 | 841 ft | 149 kts | 0° |
| 2026-05-03 21:17 | 41.29913 | 28.75713 | 1310 ft | 147 kts | 23° |
| 2026-05-03 21:17 | 41.30453 | 28.76305 | 1397 ft | 158 kts | 51° |
| 2026-05-03 21:17 | 41.31395 | 28.77840 | 1682 ft | 165 kts | 25° |
| 2026-05-03 21:17 | 41.32534 | 28.78277 | 1829 ft | 176 kts | 17° |
| 2026-05-03 21:18 | 41.33690 | 28.78958 | 1964 ft | 190 kts | 28° |
| 2026-05-03 21:18 | 41.34697 | 28.80209 | 2067 ft | 212 kts | 57° |
| 2026-05-03 21:18 | 41.34926 | 28.82239 | 2238 ft | 242 kts | 95° |
| 2026-05-03 21:18 | 41.34055 | 28.84272 | 2587 ft | 268 kts | 131° |
| 2026-05-03 21:19 | 41.32343 | 28.85411 | 3012 ft | 284 kts | 162° |
| 2026-05-03 21:19 | 41.30379 | 28.85794 | 3469 ft | 288 kts | 168° |
| 2026-05-03 21:19 | 41.28386 | 28.86193 | 4078 ft | 287 kts | 164° |
| 2026-05-03 21:19 | 41.26427 | 28.86770 | 4697 ft | 286 kts | 160° |
| 2026-05-03 21:20 | 41.24509 | 28.87457 | 5263 ft | 287 kts | 158° |
| 2026-05-03 21:20 | 41.22581 | 28.88201 | 5816 ft | 289 kts | 158° |
| 2026-05-03 21:20 | 41.20658 | 28.88954 | 6357 ft | 291 kts | 158° |
| 2026-05-03 21:20 | 41.18692 | 28.89718 | 6929 ft | 293 kts | 158° |
| 2026-05-03 21:21 | 41.16725 | 28.90474 | 7502 ft | 293 kts | 158° |
| 2026-05-03 21:21 | 41.14775 | 28.91220 | 8003 ft | 297 kts | 158° |
| 2026-05-03 21:21 | 41.12760 | 28.91990 | 8564 ft | 298 kts | 158° |
| 2026-05-03 21:21 | 41.10767 | 28.92751 | 9086 ft | 299 kts | 158° |
| 2026-05-03 21:22 | 41.08763 | 28.93517 | 9610 ft | 301 kts | 158° |
| 2026-05-03 21:22 | 41.06736 | 28.94291 | 10110 ft | 303 kts | 158° |
| 2026-05-03 21:22 | 41.04688 | 28.95076 | 10354 ft | 316 kts | 158° |
| 2026-05-03 21:22 | 41.02518 | 28.95912 | 10532 ft | 330 kts | 158° |
| 2026-05-03 21:23 | 41.00231 | 28.96788 | 10662 ft | 346 kts | 159° |
| 2026-05-03 21:23 | 40.97861 | 28.97691 | 10856 ft | 360 kts | 159° |
| 2026-05-03 21:23 | 40.96232 | 28.98310 | 10992 ft | 369 kts | 159° |
| 2026-05-03 21:23 | 40.92844 | 28.99592 | 11243 ft | 386 kts | 159° |
| 2026-05-03 21:24 | 40.90247 | 29.00573 | 11651 ft | 392 kts | 159° |
| 2026-05-03 21:24 | 40.87589 | 29.01576 | 12103 ft | 396 kts | 159° |
| 2026-05-03 21:24 | 40.84941 | 29.02573 | 12597 ft | 399 kts | 160° |
| 2026-05-03 21:24 | 40.83131 | 29.03252 | 12969 ft | 400 kts | 160° |
| 2026-05-03 21:25 | 40.79557 | 29.04596 | 13715 ft | 402 kts | 160° |
| 2026-05-03 21:25 | 40.76867 | 29.05611 | 14183 ft | 406 kts | 160° |
| 2026-05-03 21:25 | 40.75031 | 29.06302 | 14536 ft | 408 kts | 160° |
| 2026-05-03 21:25 | 40.71401 | 29.07663 | 15261 ft | 411 kts | 160° |
| 2026-05-03 21:26 | 40.68628 | 29.08705 | 15796 ft | 413 kts | 160° |
| 2026-05-03 21:26 | 40.65831 | 29.09759 | 16352 ft | 414 kts | 160° |
| 2026-05-03 21:26 | 40.63990 | 29.10454 | 16709 ft | 415 kts | 160° |
| 2026-05-03 21:26 | 40.60278 | 29.11853 | 17364 ft | 419 kts | 160° |
| 2026-05-03 21:27 | 40.57456 | 29.12915 | 17862 ft | 421 kts | 160° |
| 2026-05-03 21:27 | 40.54647 | 29.13971 | 18325 ft | 423 kts | 160° |
| 2026-05-03 21:27 | 40.51802 | 29.15040 | 18781 ft | 426 kts | 160° |
| 2026-05-03 21:27 | 40.48911 | 29.16125 | 19266 ft | 428 kts | 161° |
| 2026-05-03 21:28 | 40.46037 | 29.17200 | 19737 ft | 430 kts | 161° |
| 2026-05-03 21:28 | 40.43151 | 29.18279 | 20166 ft | 432 kts | 161° |
| 2026-05-03 21:28 | 40.41258 | 29.18987 | 20486 ft | 433 kts | 161° |
| 2026-05-03 21:28 | 40.37357 | 29.20444 | 21025 ft | 436 kts | 161° |
| 2026-05-03 21:29 | 40.35405 | 29.21173 | 21319 ft | 437 kts | 161° |
| 2026-05-03 21:29 | 40.31462 | 29.22644 | 21821 ft | 441 kts | 161° |
| 2026-05-03 21:29 | 40.29521 | 29.23368 | 22131 ft | 441 kts | 161° |
| 2026-05-03 21:29 | 40.25558 | 29.24843 | 22676 ft | 444 kts | 161° |
| 2026-05-03 21:30 | 40.22573 | 29.25958 | 23028 ft | 447 kts | 161° |
| 2026-05-03 21:30 | 40.19559 | 29.27082 | 23371 ft | 450 kts | 161° |
| 2026-05-03 21:30 | 40.16543 | 29.28203 | 23731 ft | 453 kts | 161° |
| 2026-05-03 21:30 | 40.14509 | 29.28946 | 23987 ft | 454 kts | 160° |
| 2026-05-03 21:31 | 40.11480 | 29.30060 | 24453 ft | 453 kts | 160° |
| 2026-05-03 21:31 | 40.07450 | 29.31565 | 25121 ft | 451 kts | 160° |
| 2026-05-03 21:31 | 40.04413 | 29.32696 | 25454 ft | 453 kts | 161° |
| 2026-05-03 21:31 | 40.01374 | 29.33818 | 25625 ft | 459 kts | 160° |
| 2026-05-03 21:32 | 39.99262 | 29.34601 | 25798 ft | 461 kts | 160° |
| 2026-05-03 21:32 | 39.95130 | 29.36128 | 26737 ft | 452 kts | 160° |
| 2026-05-03 21:32 | 39.93131 | 29.36865 | 27258 ft | 447 kts | 160° |
| 2026-05-03 21:32 | 39.90179 | 29.38018 | 27847 ft | 440 kts | 157° |
| 2026-05-03 21:33 | 39.86323 | 29.39897 | 28386 ft | 437 kts | 153° |
| 2026-05-03 21:33 | 39.84467 | 29.40907 | 28658 ft | 436 kts | 153° |
| 2026-05-03 21:33 | 39.81692 | 29.42472 | 29101 ft | 433 kts | 152° |
| 2026-05-03 21:33 | 39.77980 | 29.44597 | 29630 ft | 430 kts | 152° |
| 2026-05-03 21:34 | 39.76146 | 29.45643 | 29858 ft | 430 kts | 152° |
| 2026-05-03 21:34 | 39.73426 | 29.47181 | 30191 ft | 428 kts | 152° |
| 2026-05-03 21:34 | 39.70694 | 29.48710 | 30480 ft | 427 kts | 152° |
| 2026-05-03 21:34 | 39.67028 | 29.50744 | 30778 ft | 427 kts | 152° |
| 2026-05-03 21:35 | 39.62464 | 29.53241 | 30790 ft | 428 kts | 153° |
| 2026-05-03 21:35 | 39.55979 | 29.56525 | 30781 ft | 429 kts | 154° |
| 2026-05-03 21:36 | 39.51326 | 29.58815 | 30777 ft | 430 kts | 154° |
| 2026-05-03 21:36 | 39.44793 | 29.62039 | 30759 ft | 432 kts | 154° |
| 2026-05-03 21:37 | 39.40084 | 29.64371 | 30761 ft | 433 kts | 154° |
| 2026-05-03 21:37 | 39.33516 | 29.67634 | 30752 ft | 432 kts | 154° |
| 2026-05-03 21:38 | 39.28810 | 29.69974 | 30741 ft | 434 kts | 154° |
| 2026-05-03 21:38 | 39.22213 | 29.73246 | 30740 ft | 438 kts | 155° |
| 2026-05-03 21:39 | 39.17486 | 29.75584 | 30733 ft | 435 kts | 154° |
| 2026-05-03 21:39 | 39.10834 | 29.78866 | 30735 ft | 440 kts | 155° |
| 2026-05-03 21:40 | 39.06064 | 29.81213 | 30719 ft | 438 kts | 154° |
| 2026-05-03 21:40 | 39.00320 | 29.84035 | 30740 ft | 440 kts | 155° |
| 2026-05-03 21:41 | 38.94617 | 29.86834 | 30728 ft | 439 kts | 155° |
| 2026-05-03 21:41 | 38.87921 | 29.90113 | 30730 ft | 442 kts | 155° |
| 2026-05-03 21:42 | 38.83114 | 29.92423 | 30724 ft | 443 kts | 155° |
| 2026-05-03 21:42 | 38.77301 | 29.95177 | 30713 ft | 444 kts | 155° |
| 2026-05-03 21:43 | 38.70516 | 29.98385 | 30704 ft | 447 kts | 156° |
| 2026-05-03 21:43 | 38.65660 | 30.00682 | 30720 ft | 450 kts | 156° |
| 2026-05-03 21:44 | 38.59794 | 30.03452 | 30722 ft | 448 kts | 156° |
| 2026-05-03 21:44 | 38.53933 | 30.06218 | 30726 ft | 451 kts | 156° |
| 2026-05-03 21:45 | 38.47961 | 30.09035 | 30874 ft | 457 kts | 156° |
| 2026-05-03 21:45 | 38.44981 | 30.10438 | 31071 ft | 457 kts | 157° |
| 2026-05-03 21:45 | 38.40997 | 30.12311 | 31261 ft | 459 kts | 157° |
| 2026-05-03 21:46 | 38.34995 | 30.15126 | 31575 ft | 460 kts | 158° |
| 2026-05-03 21:46 | 38.33002 | 30.16059 | 31683 ft | 460 kts | 158° |
| 2026-05-03 21:46 | 38.29988 | 30.17458 | 31818 ft | 461 kts | 158° |
| 2026-05-03 21:47 | 38.23867 | 30.20272 | 31821 ft | 472 kts | 158° |
| 2026-05-03 21:47 | 38.16625 | 30.23587 | 31988 ft | 478 kts | 159° |
| 2026-05-03 21:48 | 38.13475 | 30.25028 | 32133 ft | 478 kts | 159° |
| 2026-05-03 21:48 | 38.10370 | 30.26448 | 32395 ft | 474 kts | 159° |
| 2026-05-03 21:48 | 38.08335 | 30.27378 | 32613 ft | 470 kts | 159° |
| 2026-05-03 21:48 | 38.05238 | 30.28793 | 32690 ft | 467 kts | 160° |
| 2026-05-03 21:49 | 37.99216 | 30.31540 | 32686 ft | 459 kts | 160° |
| 2026-05-03 21:49 | 37.92195 | 30.34725 | 32708 ft | 460 kts | 160° |
| 2026-05-03 21:50 | 37.86106 | 30.37478 | 32698 ft | 460 kts | 160° |
| 2026-05-03 21:50 | 37.81081 | 30.39747 | 32706 ft | 460 kts | 160° |
| 2026-05-03 21:51 | 37.75071 | 30.42457 | 32718 ft | 461 kts | 160° |
| 2026-05-03 21:51 | 37.67972 | 30.45652 | 32717 ft | 461 kts | 161° |
| 2026-05-03 21:52 | 37.62952 | 30.47909 | 32714 ft | 459 kts | 161° |
| 2026-05-03 21:52 | 37.55837 | 30.51102 | 32723 ft | 460 kts | 161° |
| 2026-05-03 21:53 | 37.49806 | 30.53805 | 32726 ft | 458 kts | 161° |
| 2026-05-03 21:53 | 37.43774 | 30.56501 | 32738 ft | 459 kts | 162° |
| 2026-05-03 21:54 | 37.38756 | 30.58740 | 32736 ft | 459 kts | 162° |
| 2026-05-03 21:54 | 37.32734 | 30.61423 | 32738 ft | 458 kts | 162° |
| 2026-05-03 21:55 | 37.26755 | 30.64084 | 32731 ft | 458 kts | 162° |
| 2026-05-03 21:55 | 37.19733 | 30.67201 | 32719 ft | 458 kts | 163° |
| 2026-05-03 21:56 | 37.13741 | 30.69858 | 32722 ft | 457 kts | 163° |
| 2026-05-03 21:56 | 37.08700 | 30.72088 | 32729 ft | 459 kts | 163° |
| 2026-05-03 21:57 | 37.02695 | 30.74741 | 32723 ft | 458 kts | 163° |
| 2026-05-03 21:57 | 36.95663 | 30.77801 | 32725 ft | 458 kts | 165° |
| 2026-05-03 21:58 | 36.90500 | 30.79394 | 32722 ft | 454 kts | 175° |
| 2026-05-03 21:58 | 36.84220 | 30.79999 | 32724 ft | 449 kts | 181° |
| 2026-05-03 21:59 | 36.77953 | 30.80149 | 32725 ft | 449 kts | 182° |
| 2026-05-03 21:59 | 36.71649 | 30.80263 | 32728 ft | 450 kts | 182° |
| 2026-05-03 22:00 | 36.64256 | 30.80448 | 32719 ft | 450 kts | 182° |
| 2026-05-03 22:00 | 36.58019 | 30.80638 | 32713 ft | 448 kts | 182° |
| 2026-05-03 22:01 | 36.52811 | 30.80810 | 32704 ft | 447 kts | 182° |
| 2026-05-03 22:01 | 36.45491 | 30.81058 | 32710 ft | 449 kts | 182° |
| 2026-05-03 22:02 | 36.40226 | 30.81237 | 32711 ft | 449 kts | 182° |
| 2026-05-03 22:02 | 36.34009 | 30.81448 | 32710 ft | 448 kts | 182° |
| 2026-05-03 22:03 | 36.27733 | 30.81657 | 32708 ft | 448 kts | 183° |
| 2026-05-03 22:03 | 36.21513 | 30.81864 | 32701 ft | 445 kts | 183° |
| 2026-05-03 22:04 | 36.15351 | 30.82069 | 32702 ft | 445 kts | 183° |
| 2026-05-03 22:04 | 36.09140 | 30.82274 | 32704 ft | 445 kts | 183° |
| 2026-05-03 22:05 | 36.02949 | 30.82484 | 32702 ft | 443 kts | 183° |
| 2026-05-03 22:05 | 35.96771 | 30.82813 | 32702 ft | 444 kts | 182° |
| 2026-05-03 22:06 | 35.90547 | 30.83213 | 32712 ft | 445 kts | 182° |
| 2026-05-03 22:06 | 35.83303 | 30.83674 | 32721 ft | 446 kts | 182° |
| 2026-05-03 22:07 | 35.78132 | 30.83995 | 32721 ft | 444 kts | 182° |
| 2026-05-03 22:07 | 35.71958 | 30.84375 | 32719 ft | 443 kts | 183° |
| 2026-05-03 22:08 | 35.65808 | 30.84748 | 32740 ft | 443 kts | 183° |
| 2026-05-03 22:08 | 35.59647 | 30.85108 | 32742 ft | 442 kts | 184° |
| 2026-05-03 22:09 | 35.53491 | 30.85340 | 32743 ft | 442 kts | 185° |
| 2026-05-03 22:10 | 35.44244 | 30.85611 | 32754 ft | 440 kts | 186° |
| 2026-05-03 22:10 | 35.38084 | 30.85802 | 32754 ft | 442 kts | 186° |
| 2026-05-03 22:11 | 35.31967 | 30.85999 | 32750 ft | 441 kts | 186° |
| 2026-05-03 22:11 | 35.25812 | 30.86204 | 32759 ft | 440 kts | 186° |
| 2026-05-03 22:12 | 35.19716 | 30.86404 | 32766 ft | 440 kts | 186° |
| 2026-05-03 22:12 | 35.13572 | 30.86613 | 32773 ft | 440 kts | 186° |
| 2026-05-03 22:13 | 35.07485 | 30.86818 | 32781 ft | 436 kts | 187° |
| 2026-05-03 22:13 | 35.01380 | 30.87018 | 32786 ft | 439 kts | 187° |
| 2026-05-03 22:14 | 34.95242 | 30.87217 | 32783 ft | 440 kts | 187° |
| 2026-05-03 22:14 | 34.89140 | 30.87420 | 32818 ft | 439 kts | 187° |
| 2026-05-03 22:15 | 34.83008 | 30.87627 | 32835 ft | 438 kts | 187° |
| 2026-05-03 22:15 | 34.76967 | 30.87833 | 32828 ft | 433 kts | 187° |
| 2026-05-03 22:16 | 34.70895 | 30.88032 | 32822 ft | 435 kts | 187° |
| 2026-05-03 22:16 | 34.64838 | 30.88230 | 32855 ft | 435 kts | 188° |
| 2026-05-03 22:17 | 34.58845 | 30.88441 | 32855 ft | 432 kts | 188° |
| 2026-05-03 22:17 | 34.52828 | 30.88727 | 32862 ft | 434 kts | 187° |
| 2026-05-03 22:18 | 34.46788 | 30.89039 | 32876 ft | 434 kts | 188° |
| 2026-05-03 22:18 | 34.39764 | 30.89402 | 32872 ft | 430 kts | 188° |
| 2026-05-03 22:19 | 34.34796 | 30.89648 | 32871 ft | 430 kts | 188° |
| 2026-05-03 22:19 | 34.28822 | 30.89943 | 32868 ft | 431 kts | 188° |
| 2026-05-03 22:20 | 34.22805 | 30.90242 | 32898 ft | 428 kts | 188° |
| 2026-05-03 22:20 | 34.16855 | 30.90568 | 32890 ft | 428 kts | 188° |
| 2026-05-03 22:21 | 34.10926 | 30.90901 | 32896 ft | 427 kts | 188° |
| 2026-05-03 22:21 | 34.04977 | 30.91233 | 32895 ft | 428 kts | 188° |
| 2026-05-03 22:22 | 33.99010 | 30.91563 | 32910 ft | 427 kts | 189° |
| 2026-05-03 22:22 | 33.93091 | 30.91887 | 32917 ft | 424 kts | 189° |
| 2026-05-03 22:23 | 33.87170 | 30.92124 | 32927 ft | 426 kts | 190° |
| 2026-05-03 22:23 | 33.81260 | 30.92334 | 32922 ft | 423 kts | 190° |
| 2026-05-03 22:24 | 33.75383 | 30.92545 | 32930 ft | 424 kts | 190° |
| 2026-05-03 22:24 | 33.69531 | 30.92763 | 32925 ft | 420 kts | 190° |
| 2026-05-03 22:25 | 33.63671 | 30.92979 | 32929 ft | 421 kts | 190° |
| 2026-05-03 22:25 | 33.57809 | 30.93202 | 32930 ft | 420 kts | 190° |
| 2026-05-03 22:26 | 33.51962 | 30.93421 | 32934 ft | 422 kts | 190° |
| 2026-05-03 22:26 | 33.46079 | 30.93644 | 32940 ft | 420 kts | 190° |
| 2026-05-03 22:27 | 33.40244 | 30.93864 | 32952 ft | 421 kts | 191° |
| 2026-05-03 22:27 | 33.34413 | 30.94083 | 32949 ft | 421 kts | 191° |
| 2026-05-03 22:28 | 33.28523 | 30.94304 | 32943 ft | 419 kts | 191° |
| 2026-05-03 22:28 | 33.22670 | 30.94522 | 32968 ft | 422 kts | 191° |
| 2026-05-03 22:29 | 33.16847 | 30.94740 | 32972 ft | 419 kts | 191° |
| 2026-05-03 22:29 | 33.10985 | 30.94959 | 32970 ft | 419 kts | 191° |
| 2026-05-03 22:30 | 33.05143 | 30.95373 | 32962 ft | 423 kts | 188° |
| 2026-05-03 22:30 | 32.99283 | 30.96070 | 32972 ft | 426 kts | 187° |
| 2026-05-03 22:31 | 32.93370 | 30.96796 | 32973 ft | 425 kts | 187° |
| 2026-05-03 22:31 | 32.87492 | 30.97494 | 32975 ft | 424 kts | 187° |
| 2026-05-03 22:32 | 32.81575 | 30.98164 | 32974 ft | 427 kts | 188° |
| 2026-05-03 22:32 | 32.75648 | 30.98830 | 32977 ft | 426 kts | 187° |
| 2026-05-03 22:33 | 32.69777 | 30.99491 | 32977 ft | 424 kts | 188° |
| 2026-05-03 22:33 | 32.63885 | 31.00142 | 32990 ft | 426 kts | 188° |
| 2026-05-03 22:34 | 32.58008 | 31.00795 | 32996 ft | 424 kts | 188° |
| 2026-05-03 22:34 | 32.52117 | 31.01454 | 32998 ft | 424 kts | 188° |
| 2026-05-03 22:35 | 32.46218 | 31.02106 | 33003 ft | 423 kts | 187° |
| 2026-05-03 22:35 | 32.40358 | 31.02755 | 33003 ft | 424 kts | 188° |
| 2026-05-03 22:36 | 32.34475 | 31.03403 | 33010 ft | 424 kts | 188° |
| 2026-05-03 22:36 | 32.28578 | 31.04055 | 33015 ft | 424 kts | 188° |
| 2026-05-03 22:37 | 32.22709 | 31.04699 | 33018 ft | 424 kts | 188° |
| 2026-05-03 22:37 | 32.16855 | 31.05344 | 33017 ft | 424 kts | 188° |
| 2026-05-03 22:38 | 32.10947 | 31.05991 | 33021 ft | 424 kts | 188° |
| 2026-05-03 22:38 | 32.05055 | 31.06638 | 33022 ft | 426 kts | 188° |
| 2026-05-03 22:39 | 31.99163 | 31.07280 | 33028 ft | 424 kts | 188° |
| 2026-05-03 22:39 | 31.93292 | 31.07915 | 33030 ft | 424 kts | 188° |
| 2026-05-03 22:40 | 31.87399 | 31.08551 | 33032 ft | 424 kts | 188° |
| 2026-05-03 22:40 | 31.81529 | 31.09185 | 33033 ft | 421 kts | 188° |
| 2026-05-03 22:41 | 31.75655 | 31.09811 | 33037 ft | 422 kts | 188° |
| 2026-05-03 22:41 | 31.69790 | 31.10435 | 33035 ft | 423 kts | 188° |
| 2026-05-03 22:42 | 31.63952 | 31.11059 | 33037 ft | 423 kts | 188° |
| 2026-05-03 22:42 | 31.58095 | 31.11687 | 33037 ft | 421 kts | 188° |
| 2026-05-03 22:43 | 31.52225 | 31.12318 | 33039 ft | 423 kts | 187° |
| 2026-05-03 22:43 | 31.46351 | 31.13278 | 33041 ft | 426 kts | 184° |
| 2026-05-03 22:44 | 31.40488 | 31.14452 | 33042 ft | 428 kts | 183° |
| 2026-05-03 22:44 | 31.34616 | 31.15625 | 33042 ft | 427 kts | 184° |
| 2026-05-03 22:45 | 31.28747 | 31.16750 | 33043 ft | 427 kts | 184° |
| 2026-05-03 22:45 | 31.22865 | 31.17859 | 33046 ft | 428 kts | 183° |
| 2026-05-03 22:46 | 31.17007 | 31.18955 | 33045 ft | 427 kts | 184° |
| 2026-05-03 22:46 | 31.11117 | 31.20053 | 33047 ft | 429 kts | 184° |
| 2026-05-03 22:47 | 31.05240 | 31.21147 | 33047 ft | 427 kts | 183° |
| 2026-05-03 22:47 | 30.99359 | 31.22243 | 33048 ft | 425 kts | 183° |
| 2026-05-03 22:48 | 30.93514 | 31.23325 | 33052 ft | 426 kts | 184° |
| 2026-05-03 22:48 | 30.87604 | 31.24416 | 33055 ft | 427 kts | 183° |
| 2026-05-03 22:49 | 30.81754 | 31.25500 | 33053 ft | 428 kts | 183° |
| 2026-05-03 22:49 | 30.75728 | 31.26616 | 33057 ft | 426 kts | 183° |
| 2026-05-03 22:50 | 30.69849 | 31.27698 | 33061 ft | 428 kts | 183° |
| 2026-05-03 22:50 | 30.63934 | 31.28788 | 33060 ft | 430 kts | 183° |
| 2026-05-03 22:51 | 30.58025 | 31.29878 | 33063 ft | 429 kts | 183° |
| 2026-05-03 22:51 | 30.52085 | 31.30970 | 33064 ft | 430 kts | 183° |
| 2026-05-03 22:52 | 30.46178 | 31.32056 | 33071 ft | 430 kts | 184° |
| 2026-05-03 22:52 | 30.40245 | 31.33145 | 33068 ft | 430 kts | 183° |
| 2026-05-03 22:53 | 30.34314 | 31.34235 | 33077 ft | 432 kts | 183° |
| 2026-05-03 22:53 | 30.28381 | 31.35326 | 33072 ft | 430 kts | 183° |
| 2026-05-03 22:54 | 30.22465 | 31.36412 | 33079 ft | 430 kts | 183° |
| 2026-05-03 22:54 | 30.16503 | 31.37496 | 33081 ft | 432 kts | 183° |
| 2026-05-03 22:55 | 30.10586 | 31.38584 | 33085 ft | 430 kts | 183° |
| 2026-05-03 22:55 | 30.04665 | 31.40114 | 33088 ft | 444 kts | 177° |
| 2026-05-03 22:56 | 29.98791 | 31.42094 | 33091 ft | 447 kts | 175° |
| 2026-05-03 22:56 | 29.92739 | 31.44204 | 33078 ft | 445 kts | 175° |
| 2026-05-03 22:57 | 29.86795 | 31.46234 | 33081 ft | 444 kts | 176° |
| 2026-05-03 22:57 | 29.80809 | 31.48234 | 33061 ft | 444 kts | 176° |
| 2026-05-03 22:58 | 29.74893 | 31.50197 | 33080 ft | 444 kts | 176° |
| 2026-05-03 22:58 | 29.68942 | 31.52166 | 33080 ft | 445 kts | 176° |
| 2026-05-03 22:59 | 29.62991 | 31.54123 | 33076 ft | 444 kts | 175° |
| 2026-05-03 22:59 | 29.57036 | 31.56072 | 33071 ft | 443 kts | 175° |
| 2026-05-03 23:00 | 29.51102 | 31.58010 | 33078 ft | 444 kts | 175° |
| 2026-05-03 23:00 | 29.45150 | 31.59951 | 33066 ft | 445 kts | 175° |
| 2026-05-03 23:01 | 29.39168 | 31.61900 | 33076 ft | 445 kts | 175° |
| 2026-05-03 23:01 | 29.33237 | 31.63832 | 33062 ft | 444 kts | 175° |
| 2026-05-03 23:02 | 29.27302 | 31.65765 | 33065 ft | 442 kts | 175° |
| 2026-05-03 23:02 | 29.21372 | 31.67693 | 33071 ft | 440 kts | 175° |
| 2026-05-03 23:03 | 29.15458 | 31.69613 | 33065 ft | 441 kts | 175° |
| 2026-05-03 23:03 | 29.09513 | 31.71535 | 33070 ft | 443 kts | 175° |
| 2026-05-03 23:04 | 29.03589 | 31.73454 | 33067 ft | 443 kts | 175° |
| 2026-05-03 23:04 | 28.97671 | 31.75369 | 33065 ft | 441 kts | 175° |
| 2026-05-03 23:05 | 28.91762 | 31.77261 | 33062 ft | 441 kts | 175° |
| 2026-05-03 23:05 | 28.85829 | 31.79144 | 33061 ft | 441 kts | 175° |
| 2026-05-03 23:06 | 28.79921 | 31.81012 | 33061 ft | 442 kts | 175° |
| 2026-05-03 23:06 | 28.73976 | 31.82900 | 33061 ft | 440 kts | 175° |
| 2026-05-03 23:07 | 28.68074 | 31.84768 | 33062 ft | 442 kts | 175° |
| 2026-05-03 23:07 | 28.62120 | 31.86655 | 33065 ft | 439 kts | 175° |
| 2026-05-03 23:08 | 28.56191 | 31.88528 | 33065 ft | 442 kts | 175° |
| 2026-05-03 23:08 | 28.50281 | 31.90394 | 33067 ft | 439 kts | 175° |
| 2026-05-03 23:09 | 28.44381 | 31.92256 | 33066 ft | 440 kts | 175° |
| 2026-05-03 23:09 | 28.38444 | 31.94123 | 33068 ft | 442 kts | 175° |
| 2026-05-03 23:10 | 28.32522 | 31.95992 | 33068 ft | 439 kts | 175° |
| 2026-05-03 23:10 | 28.26617 | 31.97846 | 33068 ft | 439 kts | 174° |
| 2026-05-03 23:11 | 28.20699 | 31.99704 | 33068 ft | 441 kts | 175° |
| 2026-05-03 23:11 | 28.14802 | 32.01556 | 33065 ft | 438 kts | 174° |
| 2026-05-03 23:12 | 28.08909 | 32.03404 | 33067 ft | 438 kts | 174° |
| 2026-05-03 23:12 | 28.03003 | 32.05252 | 33070 ft | 437 kts | 174° |
| 2026-05-03 23:13 | 27.97101 | 32.07121 | 33073 ft | 439 kts | 174° |
| 2026-05-03 23:13 | 27.91200 | 32.09014 | 33070 ft | 440 kts | 174° |
| 2026-05-03 23:14 | 27.85326 | 32.10901 | 33061 ft | 439 kts | 174° |
| 2026-05-03 23:14 | 27.79440 | 32.12788 | 33066 ft | 439 kts | 174° |
| 2026-05-03 23:15 | 27.73547 | 32.14665 | 33058 ft | 440 kts | 174° |
| 2026-05-03 23:15 | 27.67633 | 32.16551 | 33067 ft | 438 kts | 174° |
| 2026-05-03 23:16 | 27.61791 | 32.18414 | 33064 ft | 438 kts | 174° |
| 2026-05-03 23:16 | 27.55889 | 32.20286 | 33066 ft | 440 kts | 174° |
| 2026-05-03 23:17 | 27.49936 | 32.22171 | 33057 ft | 441 kts | 174° |
| 2026-05-03 23:17 | 27.44002 | 32.24055 | 33061 ft | 439 kts | 174° |
| 2026-05-03 23:18 | 27.38076 | 32.25931 | 33057 ft | 441 kts | 174° |
| 2026-05-03 23:18 | 27.32173 | 32.27800 | 33059 ft | 442 kts | 174° |
| 2026-05-03 23:19 | 27.26243 | 32.29675 | 33051 ft | 441 kts | 174° |
| 2026-05-03 23:19 | 27.20361 | 32.31534 | 33054 ft | 441 kts | 175° |
| 2026-05-03 23:20 | 27.14378 | 32.33418 | 33047 ft | 443 kts | 174° |
| 2026-05-03 23:20 | 27.08451 | 32.35286 | 33040 ft | 442 kts | 174° |
| 2026-05-03 23:21 | 27.02513 | 32.37157 | 33042 ft | 442 kts | 174° |
| 2026-05-03 23:21 | 26.96586 | 32.39022 | 33032 ft | 441 kts | 174° |
| 2026-05-03 23:22 | 26.87685 | 32.41816 | 33036 ft | 440 kts | 174° |
| 2026-05-03 23:22 | 26.81791 | 32.43666 | 33034 ft | 442 kts | 174° |
| 2026-05-03 23:23 | 26.75870 | 32.45522 | 33032 ft | 442 kts | 174° |
| 2026-05-03 23:23 | 26.69904 | 32.47391 | 33041 ft | 441 kts | 174° |
| 2026-05-03 23:24 | 26.63977 | 32.49243 | 33030 ft | 442 kts | 174° |
| 2026-05-03 23:24 | 26.58044 | 32.51096 | 33029 ft | 442 kts | 174° |
| 2026-05-03 23:25 | 26.52130 | 32.52941 | 33025 ft | 442 kts | 174° |
| 2026-05-03 23:25 | 26.46165 | 32.54798 | 33022 ft | 442 kts | 174° |
| 2026-05-03 23:26 | 26.40230 | 32.56646 | 33016 ft | 441 kts | 174° |
| 2026-05-03 23:26 | 26.34324 | 32.58485 | 33018 ft | 442 kts | 174° |
| 2026-05-03 23:27 | 26.28354 | 32.60335 | 33007 ft | 443 kts | 174° |
| 2026-05-03 23:27 | 26.22413 | 32.62177 | 33004 ft | 445 kts | 174° |
| 2026-05-03 23:28 | 26.16440 | 32.64030 | 32992 ft | 443 kts | 174° |
| 2026-05-03 23:28 | 26.10462 | 32.65884 | 32985 ft | 444 kts | 174° |
| 2026-05-03 23:29 | 26.04501 | 32.67726 | 32978 ft | 444 kts | 174° |
| 2026-05-03 23:29 | 25.98562 | 32.69563 | 32967 ft | 443 kts | 174° |
| 2026-05-03 23:30 | 25.92625 | 32.71394 | 32974 ft | 445 kts | 174° |
| 2026-05-03 23:30 | 25.86629 | 32.73243 | 32964 ft | 444 kts | 174° |
| 2026-05-03 23:31 | 25.80690 | 32.75072 | 32966 ft | 443 kts | 174° |
| 2026-05-03 23:31 | 25.74809 | 32.77370 | 32955 ft | 457 kts | 165° |
| 2026-05-03 23:32 | 25.69151 | 32.80890 | 32959 ft | 469 kts | 157° |
| 2026-05-03 23:32 | 25.63705 | 32.84885 | 32963 ft | 471 kts | 155° |
| 2026-05-03 23:33 | 25.58280 | 32.88981 | 32977 ft | 472 kts | 155° |
| 2026-05-03 23:33 | 25.52844 | 32.93048 | 32981 ft | 471 kts | 156° |
| 2026-05-03 23:34 | 25.47385 | 32.97088 | 32993 ft | 471 kts | 156° |
| 2026-05-03 23:34 | 25.41934 | 33.01098 | 32996 ft | 470 kts | 156° |
| 2026-05-03 23:35 | 25.36467 | 33.05105 | 32993 ft | 471 kts | 156° |
| 2026-05-03 23:35 | 25.30984 | 33.09119 | 32991 ft | 472 kts | 156° |
| 2026-05-03 23:36 | 25.25531 | 33.13104 | 32991 ft | 470 kts | 156° |
| 2026-05-03 23:36 | 25.20075 | 33.17091 | 32987 ft | 469 kts | 156° |
| 2026-05-03 23:37 | 25.14632 | 33.21062 | 32985 ft | 471 kts | 156° |
| 2026-05-03 23:37 | 25.09166 | 33.25044 | 32977 ft | 470 kts | 156° |
| 2026-05-03 23:38 | 25.03663 | 33.29048 | 32980 ft | 470 kts | 156° |
| 2026-05-03 23:38 | 24.98217 | 33.33010 | 32974 ft | 470 kts | 156° |
| 2026-05-03 23:39 | 24.92766 | 33.36974 | 32980 ft | 467 kts | 156° |
| 2026-05-03 23:39 | 24.87304 | 33.40940 | 32978 ft | 468 kts | 156° |
| 2026-05-03 23:40 | 24.81860 | 33.44883 | 32980 ft | 469 kts | 156° |
| 2026-05-03 23:40 | 24.76394 | 33.48843 | 32984 ft | 467 kts | 156° |
| 2026-05-03 23:41 | 24.70945 | 33.52786 | 32981 ft | 468 kts | 156° |
| 2026-05-03 23:41 | 24.65500 | 33.56717 | 32974 ft | 470 kts | 156° |
| 2026-05-03 23:42 | 24.60037 | 33.60663 | 32975 ft | 467 kts | 156° |
| 2026-05-03 23:42 | 24.54567 | 33.64533 | 32981 ft | 468 kts | 157° |
| 2026-05-03 23:43 | 24.49084 | 33.68388 | 32984 ft | 467 kts | 156° |
| 2026-05-03 23:43 | 24.43628 | 33.72368 | 32986 ft | 468 kts | 155° |
| 2026-05-03 23:44 | 24.38193 | 33.76341 | 32978 ft | 468 kts | 156° |
| 2026-05-03 23:44 | 24.32766 | 33.80273 | 32971 ft | 468 kts | 156° |
| 2026-05-03 23:45 | 24.27317 | 33.84196 | 32961 ft | 467 kts | 156° |
| 2026-05-03 23:45 | 24.21877 | 33.88098 | 32963 ft | 467 kts | 156° |
| 2026-05-03 23:46 | 24.16450 | 33.91983 | 32968 ft | 467 kts | 156° |
| 2026-05-03 23:46 | 24.10984 | 33.95889 | 32961 ft | 468 kts | 156° |
| 2026-05-03 23:47 | 24.05524 | 33.99790 | 32957 ft | 469 kts | 156° |
| 2026-05-03 23:47 | 24.00044 | 34.03699 | 32946 ft | 470 kts | 156° |
| 2026-05-03 23:48 | 23.94572 | 34.07603 | 32956 ft | 468 kts | 156° |
| 2026-05-03 23:48 | 23.89121 | 34.11488 | 32965 ft | 466 kts | 156° |
| 2026-05-03 23:49 | 23.83648 | 34.15380 | 32968 ft | 468 kts | 156° |
| 2026-05-03 23:49 | 23.78213 | 34.19251 | 32962 ft | 466 kts | 156° |
| 2026-05-03 23:50 | 23.73692 | 34.22487 | 32961 ft | 467 kts | 155° |
| 2026-05-03 23:50 | 23.67364 | 34.27023 | 32963 ft | 465 kts | 155° |
| 2026-05-03 23:51 | 23.61913 | 34.30926 | 32963 ft | 466 kts | 155° |
| 2026-05-03 23:51 | 23.56459 | 34.34821 | 32970 ft | 468 kts | 155° |
| 2026-05-03 23:52 | 23.51032 | 34.38696 | 32974 ft | 467 kts | 155° |
| 2026-05-03 23:52 | 23.45597 | 34.42578 | 32974 ft | 464 kts | 155° |
| 2026-05-03 23:53 | 23.40178 | 34.46435 | 32983 ft | 466 kts | 155° |
| 2026-05-03 23:53 | 23.34753 | 34.50291 | 32996 ft | 465 kts | 155° |
| 2026-05-03 23:54 | 23.29365 | 34.54120 | 32995 ft | 463 kts | 155° |
| 2026-05-03 23:54 | 23.23967 | 34.57952 | 32994 ft | 462 kts | 155° |
| 2026-05-03 23:55 | 23.18578 | 34.61771 | 32979 ft | 464 kts | 155° |
| 2026-05-03 23:55 | 23.13156 | 34.65614 | 32966 ft | 463 kts | 155° |
| 2026-05-03 23:56 | 23.07744 | 34.69449 | 32962 ft | 463 kts | 155° |
| 2026-05-03 23:56 | 23.02357 | 34.73258 | 32951 ft | 463 kts | 155° |
| 2026-05-03 23:57 | 22.96967 | 34.77067 | 32949 ft | 460 kts | 155° |
| 2026-05-03 23:57 | 22.91601 | 34.80855 | 32956 ft | 460 kts | 155° |
| 2026-05-03 23:58 | 22.86228 | 34.84641 | 32969 ft | 460 kts | 155° |
| 2026-05-03 23:58 | 22.80861 | 34.88421 | 32978 ft | 460 kts | 155° |
| 2026-05-03 23:59 | 22.75471 | 34.92211 | 32987 ft | 462 kts | 154° |
| 2026-05-03 23:59 | 22.70070 | 34.96008 | 32988 ft | 462 kts | 154° |
| 2026-05-04 00:00 | 22.64652 | 34.99815 | 32989 ft | 463 kts | 154° |
| 2026-05-04 00:00 | 22.59236 | 35.03618 | 32989 ft | 461 kts | 154° |
| 2026-05-04 00:01 | 22.53848 | 35.07397 | 32993 ft | 464 kts | 154° |
| 2026-05-04 00:01 | 22.48408 | 35.11205 | 32992 ft | 465 kts | 154° |
| 2026-05-04 00:02 | 22.42985 | 35.15001 | 32996 ft | 461 kts | 154° |
| 2026-05-04 00:02 | 22.37593 | 35.18773 | 32997 ft | 461 kts | 154° |
| 2026-05-04 00:03 | 22.32191 | 35.22543 | 33000 ft | 464 kts | 154° |
| 2026-05-04 00:03 | 22.26742 | 35.26345 | 33001 ft | 463 kts | 154° |
| 2026-05-04 00:04 | 22.21315 | 35.30128 | 33022 ft | 463 kts | 154° |
| 2026-05-04 00:04 | 22.15894 | 35.33863 | 33037 ft | 460 kts | 158° |
| 2026-05-04 00:05 | 22.12975 | 35.35103 | 33049 ft | 443 kts | 173° |
| 2026-05-04 00:05 | 22.09949 | 35.35624 | 33058 ft | 437 kts | 181° |
| 2026-05-04 00:05 | 22.03850 | 35.35924 | 33068 ft | 434 kts | 185° |
| 2026-05-04 00:06 | 21.97818 | 35.36189 | 33081 ft | 434 kts | 183° |
| 2026-05-04 00:06 | 21.91756 | 35.36632 | 33079 ft | 436 kts | 182° |
| 2026-05-04 00:07 | 21.85702 | 35.37202 | 33077 ft | 438 kts | 181° |
| 2026-05-04 00:07 | 21.79619 | 35.37835 | 33075 ft | 439 kts | 180° |
| 2026-05-04 00:08 | 21.73507 | 35.38495 | 33071 ft | 439 kts | 180° |
| 2026-05-04 00:08 | 21.67425 | 35.39160 | 33060 ft | 440 kts | 180° |
| 2026-05-04 00:09 | 21.61325 | 35.39829 | 33039 ft | 439 kts | 180° |
| 2026-05-04 00:09 | 21.55255 | 35.40496 | 33021 ft | 439 kts | 180° |
| 2026-05-04 00:10 | 21.49126 | 35.41166 | 33004 ft | 440 kts | 180° |
| 2026-05-04 00:10 | 21.43037 | 35.41831 | 33001 ft | 440 kts | 180° |
| 2026-05-04 00:11 | 21.36895 | 35.42503 | 32991 ft | 441 kts | 180° |
| 2026-05-04 00:11 | 21.30810 | 35.43167 | 32990 ft | 440 kts | 180° |
| 2026-05-04 00:12 | 21.24677 | 35.43836 | 32987 ft | 441 kts | 180° |
| 2026-05-04 00:12 | 21.18568 | 35.44503 | 32985 ft | 440 kts | 180° |
| 2026-05-04 00:13 | 21.12464 | 35.45167 | 32986 ft | 441 kts | 180° |
| 2026-05-04 00:13 | 21.06367 | 35.45829 | 32987 ft | 441 kts | 179° |
| 2026-05-04 00:14 | 21.00231 | 35.46496 | 32985 ft | 442 kts | 179° |
| 2026-05-04 00:14 | 20.94110 | 35.47160 | 32988 ft | 443 kts | 179° |
| 2026-05-04 00:15 | 20.87944 | 35.47830 | 32986 ft | 442 kts | 179° |
| 2026-05-04 00:15 | 20.81823 | 35.48495 | 32982 ft | 442 kts | 179° |
| 2026-05-04 00:16 | 20.75676 | 35.49161 | 32974 ft | 441 kts | 179° |
| 2026-05-04 00:16 | 20.69571 | 35.49823 | 32964 ft | 441 kts | 179° |
| 2026-05-04 00:17 | 20.63424 | 35.50626 | 32963 ft | 445 kts | 176° |
| 2026-05-04 00:17 | 20.57256 | 35.51629 | 32958 ft | 447 kts | 175° |
| 2026-05-04 00:18 | 20.51155 | 35.52663 | 32957 ft | 444 kts | 175° |
| 2026-05-04 00:18 | 20.45024 | 35.53689 | 32957 ft | 445 kts | 176° |
| 2026-05-04 00:19 | 20.38873 | 35.54702 | 32957 ft | 445 kts | 176° |
| 2026-05-04 00:19 | 20.32747 | 35.55704 | 32958 ft | 445 kts | 176° |
| 2026-05-04 00:20 | 20.26595 | 35.56709 | 32961 ft | 445 kts | 175° |
| 2026-05-04 00:20 | 20.20484 | 35.57706 | 32964 ft | 445 kts | 176° |
| 2026-05-04 00:21 | 20.14357 | 35.58704 | 32964 ft | 446 kts | 175° |
| 2026-05-04 00:21 | 20.08185 | 35.59709 | 32966 ft | 446 kts | 175° |
| 2026-05-04 00:22 | 20.02051 | 35.60707 | 32968 ft | 447 kts | 175° |
| 2026-05-04 00:22 | 19.95911 | 35.61705 | 32968 ft | 447 kts | 175° |
| 2026-05-04 00:23 | 19.89744 | 35.62706 | 32974 ft | 446 kts | 175° |
| 2026-05-04 00:23 | 19.83593 | 35.63705 | 32977 ft | 446 kts | 175° |
| 2026-05-04 00:24 | 19.77442 | 35.64702 | 32981 ft | 446 kts | 175° |
| 2026-05-04 00:24 | 19.71240 | 35.65705 | 32985 ft | 447 kts | 175° |
| 2026-05-04 00:25 | 19.65083 | 35.66703 | 32982 ft | 448 kts | 175° |
| 2026-05-04 00:25 | 19.58897 | 35.67704 | 32978 ft | 448 kts | 175° |
| 2026-05-04 00:26 | 19.52737 | 35.68701 | 32976 ft | 448 kts | 175° |
| 2026-05-04 00:26 | 19.46524 | 35.69706 | 32975 ft | 448 kts | 175° |
| 2026-05-04 00:27 | 19.40353 | 35.70702 | 32976 ft | 448 kts | 175° |
| 2026-05-04 00:27 | 19.34174 | 35.71698 | 32978 ft | 448 kts | 175° |
| 2026-05-04 00:28 | 19.28016 | 35.72690 | 32981 ft | 448 kts | 175° |
| 2026-05-04 00:28 | 19.21808 | 35.73690 | 32983 ft | 449 kts | 175° |
| 2026-05-04 00:29 | 19.15623 | 35.74685 | 32976 ft | 449 kts | 175° |
| 2026-05-04 00:29 | 19.09454 | 35.75677 | 32974 ft | 449 kts | 175° |
| 2026-05-04 00:30 | 19.03262 | 35.76673 | 32971 ft | 449 kts | 175° |
| 2026-05-04 00:30 | 18.97063 | 35.77668 | 32974 ft | 449 kts | 175° |
| 2026-05-04 00:31 | 18.90870 | 35.78662 | 32983 ft | 449 kts | 174° |
| 2026-05-04 00:31 | 18.84644 | 35.79659 | 32990 ft | 449 kts | 174° |
| 2026-05-04 00:32 | 18.78482 | 35.80645 | 33000 ft | 451 kts | 174° |
| 2026-05-04 00:32 | 18.72230 | 35.81646 | 33003 ft | 451 kts | 174° |
| 2026-05-04 00:33 | 18.62909 | 35.83138 | 32992 ft | 450 kts | 174° |
| 2026-05-04 00:34 | 18.56715 | 35.84127 | 32983 ft | 451 kts | 174° |
| 2026-05-04 00:34 | 18.50498 | 35.85120 | 32968 ft | 450 kts | 174° |
| 2026-05-04 00:35 | 18.44277 | 35.86112 | 32962 ft | 451 kts | 174° |
| 2026-05-04 00:35 | 18.38060 | 35.87104 | 32954 ft | 453 kts | 174° |
| 2026-05-04 00:36 | 18.31794 | 35.88103 | 32951 ft | 452 kts | 174° |
| 2026-05-04 00:36 | 18.25558 | 35.89096 | 32950 ft | 453 kts | 174° |
| 2026-05-04 00:37 | 18.19320 | 35.90087 | 32944 ft | 453 kts | 174° |
| 2026-05-04 00:37 | 18.13076 | 35.91080 | 32941 ft | 451 kts | 174° |
| 2026-05-04 00:38 | 18.06846 | 35.92069 | 32937 ft | 452 kts | 174° |
| 2026-05-04 00:38 | 18.00601 | 35.93059 | 32932 ft | 454 kts | 174° |
| 2026-05-04 00:39 | 17.94327 | 35.94054 | 32933 ft | 454 kts | 174° |
| 2026-05-04 00:39 | 17.88074 | 35.95047 | 32937 ft | 453 kts | 174° |
| 2026-05-04 00:40 | 17.81831 | 35.96035 | 32941 ft | 454 kts | 174° |
| 2026-05-04 00:40 | 17.75546 | 35.97030 | 32943 ft | 453 kts | 174° |
| 2026-05-04 00:41 | 17.69310 | 35.98016 | 32943 ft | 453 kts | 174° |
| 2026-05-04 00:41 | 17.63060 | 35.99005 | 32937 ft | 454 kts | 174° |
| 2026-05-04 00:42 | 17.56768 | 35.99999 | 32936 ft | 454 kts | 174° |
| 2026-05-04 00:42 | 17.50544 | 36.00980 | 32929 ft | 455 kts | 174° |
| 2026-05-04 00:43 | 17.44249 | 36.01973 | 32923 ft | 455 kts | 174° |
| 2026-05-04 00:43 | 17.37991 | 36.02959 | 32915 ft | 456 kts | 174° |
| 2026-05-04 00:44 | 17.31711 | 36.03947 | 32907 ft | 455 kts | 174° |
| 2026-05-04 00:44 | 17.25395 | 36.04941 | 32905 ft | 456 kts | 174° |
| 2026-05-04 00:45 | 17.19112 | 36.05929 | 32901 ft | 456 kts | 174° |
| 2026-05-04 00:45 | 17.12843 | 36.06915 | 32895 ft | 455 kts | 174° |
| 2026-05-04 00:46 | 17.06536 | 36.07908 | 32895 ft | 455 kts | 174° |
| 2026-05-04 00:46 | 17.00258 | 36.08893 | 32890 ft | 456 kts | 174° |
| 2026-05-04 00:47 | 16.93949 | 36.09882 | 32886 ft | 456 kts | 174° |
| 2026-05-04 00:47 | 16.87642 | 36.10870 | 32886 ft | 458 kts | 174° |
| 2026-05-04 00:48 | 16.81315 | 36.11861 | 32894 ft | 457 kts | 174° |
| 2026-05-04 00:48 | 16.75040 | 36.12844 | 32898 ft | 456 kts | 174° |
| 2026-05-04 00:49 | 16.68755 | 36.13827 | 32898 ft | 455 kts | 174° |
| 2026-05-04 00:49 | 16.62423 | 36.14817 | 32899 ft | 455 kts | 174° |
| 2026-05-04 00:50 | 16.56153 | 36.15795 | 32896 ft | 456 kts | 174° |
| 2026-05-04 00:50 | 16.49826 | 36.16783 | 32898 ft | 455 kts | 174° |
| 2026-05-04 00:51 | 16.43554 | 36.17763 | 32897 ft | 456 kts | 174° |
| 2026-05-04 00:51 | 16.37212 | 36.18750 | 32897 ft | 456 kts | 174° |
| 2026-05-04 00:52 | 16.30932 | 36.19729 | 32897 ft | 456 kts | 174° |
| 2026-05-04 00:52 | 16.24661 | 36.20706 | 32900 ft | 455 kts | 174° |
| 2026-05-04 00:53 | 16.18355 | 36.21688 | 32902 ft | 455 kts | 174° |
| 2026-05-04 00:53 | 16.12088 | 36.22662 | 32909 ft | 455 kts | 174° |
| 2026-05-04 00:54 | 16.05811 | 36.23637 | 32904 ft | 455 kts | 174° |
| 2026-05-04 00:54 | 15.99517 | 36.24614 | 32900 ft | 456 kts | 174° |
| 2026-05-04 00:55 | 15.93237 | 36.25588 | 32900 ft | 455 kts | 174° |
| 2026-05-04 00:55 | 15.86925 | 36.26567 | 32900 ft | 455 kts | 174° |
| 2026-05-04 00:56 | 15.80668 | 36.27539 | 32908 ft | 455 kts | 174° |
| 2026-05-04 00:56 | 15.74356 | 36.28516 | 32904 ft | 455 kts | 174° |
| 2026-05-04 00:57 | 15.68093 | 36.29486 | 32909 ft | 455 kts | 174° |
| 2026-05-04 00:57 | 15.61816 | 36.30456 | 32913 ft | 454 kts | 174° |
| 2026-05-04 00:58 | 15.55559 | 36.31424 | 32910 ft | 455 kts | 173° |
| 2026-05-04 00:58 | 15.49291 | 36.32393 | 32916 ft | 453 kts | 173° |
| 2026-05-04 00:59 | 15.43038 | 36.33323 | 32918 ft | 453 kts | 175° |
| 2026-05-04 00:59 | 15.36719 | 36.33608 | 32920 ft | 450 kts | 183° |
| 2026-05-04 01:00 | 15.30454 | 36.33268 | 32926 ft | 450 kts | 186° |
| 2026-05-04 01:00 | 15.24204 | 36.32803 | 32935 ft | 450 kts | 186° |
| 2026-05-04 01:01 | 15.17954 | 36.32352 | 32934 ft | 450 kts | 185° |
| 2026-05-04 01:01 | 15.11693 | 36.31930 | 32937 ft | 449 kts | 185° |
| 2026-05-04 01:02 | 15.05427 | 36.31525 | 32938 ft | 449 kts | 185° |
| 2026-05-04 01:02 | 14.99208 | 36.31132 | 32942 ft | 449 kts | 185° |
| 2026-05-04 01:03 | 14.92922 | 36.30738 | 32935 ft | 449 kts | 185° |
| 2026-05-04 01:03 | 14.86666 | 36.30348 | 32934 ft | 450 kts | 185° |
| 2026-05-04 01:04 | 14.80421 | 36.29959 | 32933 ft | 450 kts | 185° |
| 2026-05-04 01:04 | 14.74127 | 36.29568 | 32928 ft | 449 kts | 185° |
| 2026-05-04 01:05 | 14.67859 | 36.29178 | 32924 ft | 449 kts | 185° |
| 2026-05-04 01:05 | 14.61608 | 36.28789 | 32929 ft | 448 kts | 185° |
| 2026-05-04 01:06 | 14.55376 | 36.28402 | 32932 ft | 449 kts | 185° |
| 2026-05-04 01:06 | 14.49123 | 36.28014 | 32942 ft | 449 kts | 185° |
| 2026-05-04 01:07 | 14.42849 | 36.27625 | 32937 ft | 449 kts | 185° |
| 2026-05-04 01:07 | 14.36597 | 36.27237 | 32938 ft | 448 kts | 185° |
| 2026-05-04 01:08 | 14.30342 | 36.26850 | 32934 ft | 448 kts | 185° |
| 2026-05-04 01:08 | 14.24110 | 36.26465 | 32936 ft | 448 kts | 185° |
| 2026-05-04 01:09 | 14.17861 | 36.26078 | 32947 ft | 448 kts | 185° |
| 2026-05-04 01:09 | 14.11630 | 36.25693 | 32937 ft | 447 kts | 185° |
| 2026-05-04 01:10 | 14.05353 | 36.25306 | 32945 ft | 448 kts | 185° |
| 2026-05-04 01:10 | 13.99111 | 36.24920 | 32937 ft | 448 kts | 185° |
| 2026-05-04 01:11 | 13.92865 | 36.24534 | 32948 ft | 448 kts | 185° |
| 2026-05-04 01:11 | 13.86615 | 36.24147 | 32952 ft | 448 kts | 184° |
| 2026-05-04 01:12 | 13.80374 | 36.23762 | 32953 ft | 448 kts | 185° |
| 2026-05-04 01:12 | 13.74113 | 36.23375 | 32945 ft | 447 kts | 184° |
| 2026-05-04 01:13 | 13.67832 | 36.23284 | 32960 ft | 449 kts | 175° |
| 2026-05-04 01:13 | 13.64775 | 36.23895 | 32958 ft | 452 kts | 164° |
| 2026-05-04 01:13 | 13.61809 | 36.25066 | 32956 ft | 453 kts | 157° |
| 2026-05-04 01:14 | 13.56146 | 36.27915 | 32975 ft | 454 kts | 154° |
| 2026-05-04 01:14 | 13.50522 | 36.30950 | 32973 ft | 455 kts | 154° |
| 2026-05-04 01:15 | 13.44909 | 36.33966 | 32989 ft | 455 kts | 154° |
| 2026-05-04 01:15 | 13.39212 | 36.36986 | 32989 ft | 454 kts | 154° |
| 2026-05-04 01:16 | 13.33552 | 36.39962 | 33016 ft | 455 kts | 154° |
| 2026-05-04 01:16 | 13.27861 | 36.42940 | 33021 ft | 455 kts | 154° |
| 2026-05-04 01:17 | 13.22131 | 36.45933 | 33025 ft | 456 kts | 154° |
| 2026-05-04 01:17 | 13.16474 | 36.48886 | 33030 ft | 456 kts | 154° |
| 2026-05-04 01:18 | 13.10738 | 36.51879 | 33038 ft | 456 kts | 154° |
| 2026-05-04 01:18 | 13.05067 | 36.54835 | 33057 ft | 456 kts | 154° |
| 2026-05-04 01:19 | 12.99335 | 36.57822 | 33066 ft | 455 kts | 154° |
| 2026-05-04 01:19 | 12.93647 | 36.60785 | 33070 ft | 456 kts | 154° |
| 2026-05-04 01:20 | 12.87974 | 36.63738 | 33075 ft | 455 kts | 154° |
| 2026-05-04 01:20 | 12.82288 | 36.66703 | 33098 ft | 455 kts | 154° |
| 2026-05-04 01:21 | 12.76608 | 36.69665 | 33133 ft | 455 kts | 154° |
| 2026-05-04 01:21 | 12.70904 | 36.72640 | 33129 ft | 455 kts | 154° |
| 2026-05-04 01:22 | 12.65311 | 36.75701 | 33144 ft | 455 kts | 153° |
| 2026-05-04 01:22 | 12.59759 | 36.78863 | 33147 ft | 454 kts | 152° |
| 2026-05-04 01:23 | 12.54200 | 36.82034 | 33181 ft | 454 kts | 152° |
| 2026-05-04 01:23 | 12.48669 | 36.85171 | 33218 ft | 452 kts | 152° |
| 2026-05-04 01:24 | 12.43130 | 36.88298 | 33241 ft | 452 kts | 152° |
| 2026-05-04 01:24 | 12.37579 | 36.91425 | 33290 ft | 452 kts | 152° |
| 2026-05-04 01:25 | 12.32034 | 36.94545 | 33319 ft | 452 kts | 152° |
| 2026-05-04 01:25 | 12.26503 | 36.97654 | 33357 ft | 451 kts | 152° |
| 2026-05-04 01:26 | 12.20983 | 37.00755 | 33374 ft | 451 kts | 152° |
| 2026-05-04 01:26 | 12.15453 | 37.03862 | 33373 ft | 451 kts | 152° |
| 2026-05-04 01:27 | 12.09969 | 37.06942 | 33364 ft | 450 kts | 152° |
| 2026-05-04 01:27 | 12.04472 | 37.10026 | 33374 ft | 449 kts | 152° |
| 2026-05-04 01:28 | 11.98946 | 37.13126 | 33369 ft | 449 kts | 152° |
| 2026-05-04 01:28 | 11.93465 | 37.16198 | 33373 ft | 450 kts | 152° |
| 2026-05-04 01:29 | 11.87955 | 37.19286 | 33386 ft | 449 kts | 152° |
| 2026-05-04 01:29 | 11.82475 | 37.22355 | 33382 ft | 449 kts | 152° |
| 2026-05-04 01:30 | 11.76994 | 37.25423 | 33390 ft | 449 kts | 152° |
| 2026-05-04 01:30 | 11.71484 | 37.28508 | 33405 ft | 449 kts | 152° |
| 2026-05-04 01:31 | 11.66023 | 37.31562 | 33411 ft | 448 kts | 152° |
| 2026-05-04 01:31 | 11.60511 | 37.34643 | 33420 ft | 447 kts | 152° |
| 2026-05-04 01:32 | 11.55021 | 37.37710 | 33413 ft | 447 kts | 152° |
| 2026-05-04 01:32 | 11.49555 | 37.40762 | 33418 ft | 446 kts | 152° |
| 2026-05-04 01:33 | 11.44081 | 37.43819 | 33424 ft | 447 kts | 152° |
| 2026-05-04 01:33 | 11.38585 | 37.46886 | 33437 ft | 447 kts | 152° |
| 2026-05-04 01:34 | 11.33108 | 37.49942 | 33460 ft | 446 kts | 152° |
| 2026-05-04 01:34 | 11.27646 | 37.52988 | 33476 ft | 446 kts | 152° |
| 2026-05-04 01:35 | 11.22191 | 37.56027 | 33484 ft | 445 kts | 152° |
| 2026-05-04 01:35 | 11.16721 | 37.59074 | 33484 ft | 445 kts | 152° |
| 2026-05-04 01:36 | 11.11276 | 37.62106 | 33509 ft | 445 kts | 152° |
| 2026-05-04 01:36 | 11.05850 | 37.65126 | 33517 ft | 445 kts | 152° |
| 2026-05-04 01:37 | 11.00407 | 37.68153 | 33529 ft | 443 kts | 152° |
| 2026-05-04 01:37 | 10.95001 | 37.71160 | 33531 ft | 444 kts | 152° |
| 2026-05-04 01:38 | 10.89543 | 37.74194 | 33555 ft | 444 kts | 151° |
| 2026-05-04 01:38 | 10.84112 | 37.77212 | 33577 ft | 445 kts | 151° |
| 2026-05-04 01:39 | 10.78679 | 37.80229 | 33591 ft | 443 kts | 152° |
| 2026-05-04 01:39 | 10.73262 | 37.83237 | 33606 ft | 443 kts | 152° |
| 2026-05-04 01:40 | 10.67850 | 37.86240 | 33586 ft | 442 kts | 151° |
| 2026-05-04 01:40 | 10.62412 | 37.89256 | 33556 ft | 442 kts | 151° |
| 2026-05-04 01:41 | 10.56998 | 37.92258 | 33538 ft | 443 kts | 151° |
| 2026-05-04 01:41 | 10.51579 | 37.95278 | 33514 ft | 443 kts | 151° |
| 2026-05-04 01:42 | 10.46161 | 37.98325 | 33484 ft | 443 kts | 150° |
| 2026-05-04 01:42 | 10.40764 | 38.01363 | 33475 ft | 443 kts | 151° |
| 2026-05-04 01:43 | 10.35352 | 38.04406 | 33460 ft | 442 kts | 150° |
| 2026-05-04 01:43 | 10.29965 | 38.07431 | 33448 ft | 441 kts | 151° |
| 2026-05-04 01:44 | 10.24571 | 38.10459 | 33430 ft | 442 kts | 151° |
| 2026-05-04 01:44 | 10.19186 | 38.13479 | 33408 ft | 441 kts | 150° |
| 2026-05-04 01:45 | 10.13780 | 38.16508 | 33404 ft | 443 kts | 150° |
| 2026-05-04 01:45 | 10.05674 | 38.21050 | 33402 ft | 437 kts | 150° |
| 2026-05-04 01:46 | 10.00430 | 38.23987 | 33025 ft | 420 kts | 151° |
| 2026-05-04 01:46 | 9.97886 | 38.25412 | 32631 ft | 414 kts | 151° |
| 2026-05-04 01:46 | 9.95362 | 38.26826 | 32213 ft | 407 kts | 151° |
| 2026-05-04 01:47 | 9.92901 | 38.28204 | 31782 ft | 400 kts | 150° |
| 2026-05-04 01:47 | 9.90479 | 38.29561 | 31362 ft | 398 kts | 150° |
| 2026-05-04 01:47 | 9.88055 | 38.30918 | 30927 ft | 399 kts | 150° |
| 2026-05-04 01:47 | 9.85615 | 38.32284 | 30492 ft | 399 kts | 150° |
| 2026-05-04 01:48 | 9.83191 | 38.33641 | 30074 ft | 396 kts | 150° |
| 2026-05-04 01:48 | 9.80760 | 38.35001 | 29646 ft | 393 kts | 150° |
| 2026-05-04 01:48 | 9.78364 | 38.36340 | 29228 ft | 388 kts | 150° |
| 2026-05-04 01:48 | 9.76034 | 38.37642 | 28800 ft | 380 kts | 150° |
| 2026-05-04 01:49 | 9.73723 | 38.38935 | 28382 ft | 373 kts | 150° |
| 2026-05-04 01:49 | 9.71462 | 38.40203 | 27964 ft | 368 kts | 149° |
| 2026-05-04 01:49 | 9.69304 | 38.41626 | 27544 ft | 366 kts | 142° |
| 2026-05-04 01:49 | 9.67441 | 38.43324 | 27126 ft | 359 kts | 132° |
| 2026-05-04 01:50 | 9.65839 | 38.45285 | 26699 ft | 353 kts | 126° |
| 2026-05-04 01:50 | 9.64428 | 38.47274 | 26286 ft | 347 kts | 124° |
| 2026-05-04 01:50 | 9.63077 | 38.49288 | 25881 ft | 343 kts | 123° |
| 2026-05-04 01:50 | 9.61770 | 38.51271 | 25491 ft | 341 kts | 123° |
| 2026-05-04 01:51 | 9.60439 | 38.53289 | 25095 ft | 341 kts | 123° |
| 2026-05-04 01:51 | 9.59118 | 38.55278 | 24694 ft | 340 kts | 123° |
| 2026-05-04 01:51 | 9.57797 | 38.57255 | 24265 ft | 338 kts | 123° |
| 2026-05-04 01:51 | 9.56463 | 38.59242 | 23859 ft | 335 kts | 123° |
| 2026-05-04 01:52 | 9.55164 | 38.61174 | 23472 ft | 333 kts | 123° |
| 2026-05-04 01:52 | 9.53858 | 38.63113 | 23090 ft | 332 kts | 123° |
| 2026-05-04 01:52 | 9.52551 | 38.65052 | 22784 ft | 325 kts | 123° |
| 2026-05-04 01:52 | 9.51292 | 38.66916 | 22538 ft | 316 kts | 123° |
| 2026-05-04 01:53 | 9.50056 | 38.68748 | 22122 ft | 313 kts | 123° |
| 2026-05-04 01:53 | 9.48822 | 38.70579 | 21725 ft | 310 kts | 122° |
| 2026-05-04 01:53 | 9.47606 | 38.72383 | 21329 ft | 308 kts | 122° |
| 2026-05-04 01:53 | 9.46405 | 38.74165 | 20938 ft | 305 kts | 122° |
| 2026-05-04 01:54 | 9.45200 | 38.75950 | 20547 ft | 303 kts | 122° |
| 2026-05-04 01:54 | 9.44016 | 38.77707 | 20166 ft | 299 kts | 122° |
| 2026-05-04 01:54 | 9.42842 | 38.79449 | 19761 ft | 297 kts | 122° |
| 2026-05-04 01:54 | 9.41675 | 38.81179 | 19367 ft | 294 kts | 122° |
| 2026-05-04 01:55 | 9.40525 | 38.82885 | 18982 ft | 292 kts | 121° |
| 2026-05-04 01:55 | 9.39387 | 38.84575 | 18590 ft | 289 kts | 121° |
| 2026-05-04 01:55 | 9.38249 | 38.86266 | 18212 ft | 286 kts | 121° |
| 2026-05-04 01:55 | 9.37133 | 38.87920 | 17814 ft | 285 kts | 121° |
| 2026-05-04 01:56 | 9.36025 | 38.89559 | 17460 ft | 281 kts | 121° |
| 2026-05-04 01:56 | 9.34919 | 38.91196 | 17055 ft | 280 kts | 120° |
| 2026-05-04 01:56 | 9.33818 | 38.92825 | 16635 ft | 280 kts | 120° |
| 2026-05-04 01:56 | 9.32707 | 38.94469 | 16245 ft | 278 kts | 120° |
| 2026-05-04 01:57 | 9.31609 | 38.96096 | 15830 ft | 278 kts | 120° |
| 2026-05-04 01:57 | 9.30518 | 38.97712 | 15448 ft | 276 kts | 120° |
| 2026-05-04 01:57 | 9.29432 | 38.99319 | 15057 ft | 275 kts | 120° |
| 2026-05-04 01:57 | 9.28332 | 39.00944 | 14649 ft | 275 kts | 120° |
| 2026-05-04 01:58 | 9.27217 | 39.02525 | 14257 ft | 275 kts | 124° |
| 2026-05-04 01:58 | 9.25821 | 39.03874 | 13812 ft | 283 kts | 144° |
| 2026-05-04 01:58 | 9.24007 | 39.04681 | 13411 ft | 286 kts | 158° |
| 2026-05-04 01:58 | 9.22105 | 39.05275 | 13062 ft | 283 kts | 159° |
| 2026-05-04 01:59 | 9.20205 | 39.05865 | 12680 ft | 280 kts | 159° |
| 2026-05-04 01:59 | 9.18338 | 39.06471 | 12306 ft | 278 kts | 158° |
| 2026-05-04 01:59 | 9.16509 | 39.07084 | 11915 ft | 276 kts | 159° |
| 2026-05-04 01:59 | 9.14703 | 39.07695 | 11669 ft | 268 kts | 158° |
| 2026-05-04 02:00 | 9.12963 | 39.08282 | 11567 ft | 255 kts | 159° |
| 2026-05-04 02:00 | 9.11331 | 39.08830 | 11471 ft | 241 kts | 158° |
| 2026-05-04 02:00 | 9.09759 | 39.09352 | 11370 ft | 227 kts | 161° |
| 2026-05-04 02:00 | 9.08203 | 39.09633 | 11025 ft | 231 kts | 182° |
| 2026-05-04 02:01 | 9.06686 | 39.09122 | 10600 ft | 234 kts | 215° |
| 2026-05-04 02:01 | 9.05589 | 39.07964 | 10371 ft | 224 kts | 243° |
| 2026-05-04 02:01 | 9.05141 | 39.06539 | 10248 ft | 205 kts | 268° |
| 2026-05-04 02:01 | 9.04992 | 39.05135 | 10090 ft | 192 kts | 263° |
| 2026-05-04 02:02 | 9.04692 | 39.03852 | 9899 ft | 179 kts | 257° |
| 2026-05-04 02:02 | 9.04343 | 39.02641 | 9896 ft | 187 kts | 256° |
| 2026-05-04 02:02 | 9.03973 | 39.01347 | 9883 ft | 191 kts | 256° |
| 2026-05-04 02:02 | 9.03596 | 39.00057 | 9880 ft | 190 kts | 255° |
| 2026-05-04 02:03 | 9.03218 | 38.98766 | 9879 ft | 190 kts | 256° |
| 2026-05-04 02:03 | 9.02841 | 38.97468 | 9879 ft | 190 kts | 256° |
| 2026-05-04 02:03 | 9.02464 | 38.96182 | 9872 ft | 190 kts | 255° |
| 2026-05-04 02:03 | 9.02087 | 38.94901 | 9870 ft | 189 kts | 256° |
| 2026-05-04 02:04 | 9.01714 | 38.93625 | 9865 ft | 190 kts | 256° |
| 2026-05-04 02:04 | 9.01341 | 38.92345 | 9758 ft | 192 kts | 256° |
| 2026-05-04 02:04 | 9.00958 | 38.91040 | 9487 ft | 189 kts | 256° |
| 2026-05-04 02:04 | 9.00586 | 38.89781 | 9251 ft | 186 kts | 256° |
| 2026-05-04 02:05 | 9.00220 | 38.88526 | 9010 ft | 186 kts | 256° |
| 2026-05-04 02:05 | 8.99853 | 38.87273 | 8769 ft | 184 kts | 255° |
| 2026-05-04 02:05 | 8.99482 | 38.86040 | 8529 ft | 183 kts | 255° |
| 2026-05-04 02:05 | 8.99095 | 38.84815 | 8286 ft | 181 kts | 254° |
| 2026-05-04 02:06 | 8.98728 | 38.83595 | 8030 ft | 178 kts | 255° |
| 2026-05-04 02:06 | 8.98389 | 38.82411 | 7790 ft | 173 kts | 256° |
| 2026-05-04 02:06 | 8.98066 | 38.81226 | 7613 ft | 170 kts | 256° |
| 2026-05-04 02:06 | 8.97776 | 38.80183 | 7626 ft | 131 kts | 252° |
| 2026-05-04 02:07 | 8.97568 | 38.79478 | 7627 ft | 82 kts | 250° |
| 2026-05-04 02:07 | 8.97430 | 38.78997 | 7626 ft | 66 kts | 254° |
| 2026-05-04 02:07 | 8.97309 | 38.78559 | 7610 ft | 54 kts | 255° |
| 2026-05-04 02:07 | 8.97252 | 38.78366 | 7590 ft | 8 kts | 301° |
| 2026-05-04 02:08 | 8.97286 | 38.78329 | 7588 ft | 4 kts | 321° |
| 2026-05-04 02:08 | 8.97293 | 38.78324 | 7588 ft | 0 kts | 322° |